createdAt,value
2023-03-07T00:02:04.575Z,99892.22
2023-03-07T00:07:09.970Z,99898.19
2023-03-07T00:12:14.112Z,99901.34
2023-03-07T00:17:18.206Z,99912.44
2023-03-07T00:22:24.415Z,99886.03
2023-03-07T00:27:28.590Z,99891.53
2023-03-07T00:32:33.342Z,99890.00
2023-03-07T00:37:38.794Z,99874.91
2023-03-07T00:42:42.789Z,99878.78
2023-03-07T00:47:47.222Z,99875.25
2023-03-07T00:52:52.671Z,99884.38
2023-03-07T00:57:57.836Z,99860.66
2023-03-07T01:03:04.305Z,99873.84
2023-03-07T01:08:11.715Z,99866.13
2023-03-07T01:13:18.211Z,99858.09
2023-03-07T01:18:23.029Z,99857.97
2023-03-07T01:23:31.631Z,99846.75
2023-03-07T01:29:14.157Z,99844.38
2023-03-07T01:34:51.661Z,99844.41
2023-03-07T01:40:31.538Z,99839.56
2023-03-07T01:46:44.937Z,99836.44
2023-03-07T01:52:34.719Z,99836.31
2023-03-07T01:57:50.864Z,99828.03
2023-03-07T02:03:05.824Z,99826.50
2023-03-07T02:08:27.535Z,99818.31
2023-03-07T02:13:33.912Z,99810.59
2023-03-07T02:18:46.320Z,99805.59
2023-03-07T02:23:59.219Z,99789.88
2023-03-07T02:29:05.380Z,99790.13
2023-03-07T02:34:22.510Z,99788.25
2023-03-07T02:39:31.001Z,99793.88
2023-03-07T02:44:38.997Z,99777.03
2023-03-07T02:49:43.180Z,99777.69
2023-03-07T02:54:48.124Z,99782.59
2023-03-07T02:59:53.753Z,99782.50
2023-03-07T03:04:58.183Z,99772.91
2023-03-07T03:10:02.332Z,99778.53
2023-03-07T03:15:12.538Z,99773.47
2023-03-07T03:20:17.283Z,99771.69
2023-03-07T03:25:23.253Z,99765.66
2023-03-07T03:30:32.376Z,99759.88
2023-03-07T03:35:40.989Z,99758.06
2023-03-07T03:40:45.649Z,99735.72
2023-03-07T03:45:57.877Z,99737.63
2023-03-07T03:51:06.760Z,99732.63
2023-03-07T03:56:13.554Z,99726.41
2023-03-07T04:01:23.423Z,99732.81
2023-03-07T04:06:30.397Z,99722.50
2023-03-07T04:11:35.516Z,99713.78
2023-03-07T04:16:41.025Z,99715.09
2023-03-07T04:21:45.501Z,99708.97
2023-03-07T04:26:52.762Z,99712.72
2023-03-07T04:31:58.691Z,99703.13
2023-03-07T04:37:02.950Z,99697.28
2023-03-07T04:42:07.505Z,99698.09
2023-03-07T04:47:15.116Z,99698.25
2023-03-07T04:52:20.500Z,99680.22
2023-03-07T04:57:24.868Z,99683.25
2023-03-07T05:02:30.308Z,99688.41
2023-03-07T05:07:35.044Z,99683.84
2023-03-07T05:13:46.888Z,99677.69
2023-03-07T05:18:56.005Z,99682.13
2023-03-07T05:24:00.583Z,99668.28
2023-03-07T05:29:05.660Z,99661.25
2023-03-07T05:34:11.299Z,99660.47
2023-03-07T05:39:16.612Z,99667.72
2023-03-07T05:44:21.037Z,99661.88
2023-03-07T05:49:26.657Z,99666.53
2023-03-07T05:54:31.104Z,99673.56
2023-03-07T05:59:35.329Z,99668.66
2023-03-07T06:04:40.943Z,99670.28
2023-03-07T06:09:45.087Z,99687.44
2023-03-07T06:14:50.978Z,99686.53
2023-03-07T06:19:57.147Z,99678.47
2023-03-07T06:25:01.505Z,99668.91
2023-03-07T06:30:08.842Z,99665.06
2023-03-07T06:35:14.585Z,99656.28
2023-03-07T06:40:19.724Z,99665.72
2023-03-07T06:45:23.872Z,99675.44
2023-03-07T06:50:35.093Z,99667.59
2023-03-07T06:55:41.109Z,99673.53
2023-03-07T07:00:48.174Z,99665.06
2023-03-07T07:05:53.970Z,99655.34
2023-03-07T07:10:59.879Z,99671.00
2023-03-07T07:16:06.946Z,99667.63
2023-03-07T07:21:14.311Z,99688.50
2023-03-07T07:26:18.368Z,99706.28
2023-03-07T07:31:23.194Z,99699.25
2023-03-07T07:36:29.158Z,99714.66
2023-03-07T07:41:33.679Z,99723.25
2023-03-07T07:46:38.062Z,99733.91
2023-03-07T07:51:45.849Z,99743.78
2023-03-07T07:56:50.093Z,99743.31
2023-03-07T08:01:54.881Z,99754.66
2023-03-07T08:07:00.320Z,99747.81
2023-03-07T08:12:04.726Z,99752.69
2023-03-07T08:17:08.821Z,99754.25
2023-03-07T08:22:14.204Z,99758.84
2023-03-07T08:27:18.245Z,99758.53
2023-03-07T08:32:22.398Z,99756.88
2023-03-07T08:37:27.742Z,99762.50
2023-03-07T08:42:32.136Z,99757.31
2023-03-07T08:47:36.260Z,99757.56
2023-03-07T08:52:43.862Z,99759.38
2023-03-07T08:57:47.871Z,99744.00
2023-03-07T09:02:51.851Z,99748.94
2023-03-07T09:07:58.982Z,99753.75
2023-03-07T09:13:03.313Z,99752.69
2023-03-07T09:18:07.514Z,99745.84
2023-03-07T09:23:13.041Z,99762.63
2023-03-07T09:28:17.114Z,99761.97
2023-03-07T09:33:21.433Z,99752.16
2023-03-07T09:38:26.922Z,99766.63
2023-03-07T09:43:48.944Z,99766.16
2023-03-07T09:49:35.622Z,99758.47
2023-03-07T09:54:45.800Z,99770.41
2023-03-07T09:59:53.926Z,99764.53
2023-03-07T10:05:06.188Z,99764.09
2023-03-07T10:10:20.619Z,99768.44
2023-03-07T10:15:45.590Z,99753.34
2023-03-07T10:20:54.144Z,99755.88
2023-03-07T10:26:11.688Z,99766.34
2023-03-07T10:31:20.103Z,99755.66
2023-03-07T10:36:34.448Z,99762.81
2023-03-07T10:41:39.932Z,99760.88
2023-03-07T10:46:55.238Z,99757.00
2023-03-07T10:52:05.968Z,99760.03
2023-03-07T10:57:16.233Z,99762.59
2023-03-07T11:02:36.149Z,99761.88
2023-03-07T11:07:40.315Z,99762.81
2023-03-07T11:12:47.806Z,99759.91
2023-03-07T11:17:52.989Z,99754.09
2023-03-07T11:23:19.295Z,99770.09
2023-03-07T11:28:31.906Z,99766.06
2023-03-07T11:33:59.033Z,99764.66
2023-03-07T11:39:13.916Z,99769.78
2023-03-07T11:44:34.772Z,99764.00
2023-03-07T11:49:46.591Z,99760.13
2023-03-07T11:55:05.312Z,99769.75
2023-03-07T12:00:30.341Z,99757.00
2023-03-07T12:05:55.519Z,99760.53
2023-03-07T12:11:20.573Z,99751.84
2023-03-07T12:16:40.162Z,99749.47
2023-03-07T12:22:30.055Z,99750.03
2023-03-07T12:27:37.917Z,99752.25
2023-03-07T12:32:43.513Z,99758.13
2023-03-07T12:37:53.315Z,99749.56
2023-03-07T12:43:03.354Z,99741.78
2023-03-07T12:48:20.266Z,99753.78
2023-03-07T12:53:31.446Z,99754.06
2023-03-07T12:58:43.210Z,99751.25
2023-03-07T13:03:58.039Z,99752.16
2023-03-07T13:09:04.073Z,99754.44
2023-03-07T13:14:08.135Z,99748.78
2023-03-07T13:20:05.932Z,99750.41
2023-03-07T13:25:49.125Z,99751.91
2023-03-07T13:31:42.701Z,99753.22
2023-03-07T13:36:48.150Z,99763.03
2023-03-07T13:41:52.685Z,99759.44
2023-03-07T13:47:01.370Z,99772.66
2023-03-07T13:52:40.645Z,99775.91
2023-03-07T13:57:44.901Z,99779.41
2023-03-07T14:02:49.996Z,99783.88
2023-03-07T14:07:55.649Z,99787.84
2023-03-07T14:13:44.845Z,99788.53
2023-03-07T14:19:05.495Z,99785.63
2023-03-07T14:24:36.005Z,99782.66
2023-03-07T14:29:51.971Z,99791.81
2023-03-07T14:34:56.934Z,99787.47
2023-03-07T14:40:23.623Z,99796.91
2023-03-07T14:45:37.788Z,99796.50
2023-03-07T14:50:45.036Z,99807.69
2023-03-07T14:55:53.968Z,99815.63
2023-03-07T15:01:03.346Z,99804.63
2023-03-07T15:06:16.329Z,99818.50
2023-03-07T15:11:33.013Z,99814.44
2023-03-07T15:16:39.911Z,99809.31
2023-03-07T15:21:45.903Z,99825.41
2023-03-07T15:26:54.070Z,99816.59
2023-03-07T15:32:00.403Z,99816.59
2023-03-07T15:37:25.070Z,99822.69
2023-03-07T15:42:31.201Z,99829.69
2023-03-07T15:47:36.131Z,99847.59
2023-03-07T15:52:41.859Z,99867.25
2023-03-07T15:57:54.607Z,99862.41
2023-03-07T16:03:25.461Z,99873.53
2023-03-07T16:08:29.993Z,99885.38
2023-03-07T16:13:42.161Z,99883.88
2023-03-07T16:18:46.392Z,99890.63
2023-03-07T16:23:50.858Z,99906.88
2023-03-07T16:28:56.553Z,99905.50
2023-03-07T16:34:01.778Z,99913.50
2023-03-07T16:39:06.013Z,99919.13
2023-03-07T16:44:17.293Z,99908.59
2023-03-07T16:49:23.070Z,99918.47
2023-03-07T16:54:27.158Z,99921.59
2023-03-07T16:59:43.972Z,99927.66
2023-03-07T17:04:49.383Z,99925.41
2023-03-07T17:09:53.817Z,99924.44
2023-03-07T17:15:00.962Z,99924.59
2023-03-07T17:20:08.308Z,99929.75
2023-03-07T17:25:12.594Z,99934.22
2023-03-07T17:30:22.506Z,99931.84
2023-03-07T17:35:28.158Z,99941.47
2023-03-07T17:40:32.171Z,99940.34
2023-03-07T17:45:40.340Z,99941.59
2023-03-07T17:50:44.581Z,99957.69
2023-03-07T17:55:48.713Z,99954.00
2023-03-07T18:00:54.414Z,99949.91
2023-03-07T18:05:59.314Z,99959.97
2023-03-07T18:11:05.751Z,99971.75
2023-03-07T18:16:12.038Z,99981.13
2023-03-07T18:21:22.111Z,99974.94
2023-03-07T18:26:26.516Z,99996.41
2023-03-07T18:31:31.943Z,100003.91
2023-03-07T18:36:36.130Z,100007.69
2023-03-07T18:41:40.393Z,100001.66
2023-03-07T18:46:46.280Z,100013.16
2023-03-07T18:51:50.512Z,100019.31
2023-03-07T18:56:54.735Z,100023.00
2023-03-07T19:02:03.055Z,100036.13
2023-03-07T19:07:07.476Z,100030.59
2023-03-07T19:12:11.580Z,100024.63
2023-03-07T19:17:17.203Z,100020.22
2023-03-07T19:22:25.875Z,100025.66
2023-03-07T19:27:32.280Z,100028.94
2023-03-07T19:32:40.953Z,100037.97
2023-03-07T19:37:45.101Z,100042.59
2023-03-07T19:42:49.393Z,100047.84
2023-03-07T19:47:54.882Z,100035.28
2023-03-07T19:52:59.229Z,100033.88
2023-03-07T19:58:03.280Z,100030.16
2023-03-07T20:03:19.513Z,100038.38
2023-03-07T20:08:23.636Z,100041.66
2023-03-07T20:13:27.916Z,100049.88
2023-03-07T20:18:33.422Z,100061.56
2023-03-07T20:23:38.274Z,100045.13
2023-03-07T20:28:42.499Z,100046.47
2023-03-07T20:33:48.696Z,100051.81
2023-03-07T20:38:54.922Z,100052.31
2023-03-07T20:44:01.145Z,100052.13
2023-03-07T20:49:07.292Z,100051.00
2023-03-07T20:54:15.327Z,100057.63
2023-03-07T20:59:21.053Z,100051.28
2023-03-07T21:04:26.525Z,100065.44
2023-03-07T21:09:30.574Z,100076.09
2023-03-07T21:14:34.685Z,100082.66
2023-03-07T21:19:40.321Z,100074.22
2023-03-07T21:24:44.461Z,100076.06
2023-03-07T21:29:48.486Z,100084.25
2023-03-07T21:34:54.000Z,100090.69
2023-03-07T21:39:58.098Z,100084.22
2023-03-07T21:45:02.308Z,100091.16
2023-03-07T21:50:09.031Z,100098.69
2023-03-07T21:55:13.613Z,100104.91
2023-03-07T22:00:19.561Z,100099.00
2023-03-07T22:05:25.133Z,100092.97
2023-03-07T22:10:29.240Z,100089.66
2023-03-07T22:15:33.318Z,100100.56
2023-03-07T22:20:43.398Z,100092.88
2023-03-07T22:25:47.531Z,100105.34
2023-03-07T22:30:51.995Z,100102.78
2023-03-07T22:36:02.853Z,100117.25
2023-03-07T22:41:09.552Z,100108.66
2023-03-07T22:46:14.560Z,100110.41
2023-03-07T22:51:20.229Z,100115.59
2023-03-07T22:56:26.681Z,100117.25
2023-03-07T23:01:30.957Z,100093.69
2023-03-07T23:06:37.829Z,100106.84
2023-03-07T23:11:43.736Z,100089.16
2023-03-07T23:16:47.645Z,100082.88
2023-03-07T23:21:53.015Z,100087.63
2023-03-07T23:26:57.047Z,100070.94
2023-03-07T23:32:03.677Z,100089.28
2023-03-07T23:37:09.215Z,100081.97
2023-03-07T23:42:13.908Z,100064.56
2023-03-07T23:47:18.098Z,100082.88
2023-03-07T23:52:23.475Z,100079.56
2023-03-07T23:57:27.494Z,100068.78
